sensor_id;sensor_type;location;lat;lon;timestamp;temperature;humidity
13186;DHT22;6658;53.080;7.428;2023-11-19T00:00:31;10.20;99.90
13186;DHT22;6658;53.080;7.428;2023-11-19T00:02:57;10.20;99.90
13186;DHT22;6658;53.080;7.428;2023-11-19T00:05:23;10.30;99.90
13186;DHT22;6658;53.080;7.428;2023-11-19T00:07:48;10.40;99.90
13186;DHT22;6658;53.080;7.428;2023-11-19T00:10:15;10.40;99.90
13186;DHT22;6658;53.080;7.428;2023-11-19T00:12:45;10.50;99.90
13186;DHT22;6658;53.080;7.428;2023-11-19T00:15:11;10.50;99.90
13186;DHT22;6658;53.080;7.428;2023-11-19T00:17:41;10.50;99.90
13186;DHT22;6658;53.080;7.428;2023-11-19T00:20:17;10.60;99.90
13186;DHT22;6658;53.080;7.428;2023-11-19T00:22:43;10.60;99.90
13186;DHT22;6658;53.080;7.428;2023-11-19T00:25:09;10.60;99.90
13186;DHT22;6658;53.080;7.428;2023-11-19T00:27:38;10.70;99.90
13186;DHT22;6658;53.080;7.428;2023-11-19T00:30:05;10.70;99.90
13186;DHT22;6658;53.080;7.428;2023-11-19T00:32:34;10.80;99.90
13186;DHT22;6658;53.080;7.428;2023-11-19T00:35:01;10.80;99.90
13186;DHT22;6658;53.080;7.428;2023-11-19T00:37:28;10.80;99.90
13186;DHT22;6658;53.080;7.428;2023-11-19T00:39:54;10.80;99.90
13186;DHT22;6658;53.080;7.428;2023-11-19T00:42:21;10.90;99.90
13186;DHT22;6658;53.080;7.428;2023-11-19T00:44:47;10.90;99.90
13186;DHT22;6658;53.080;7.428;2023-11-19T00:47:13;11.00;99.90
13186;DHT22;6658;53.080;7.428;2023-11-19T00:49:39;11.00;99.90
13186;DHT22;6658;53.080;7.428;2023-11-19T00:52:05;11.10;99.90
13186;DHT22;6658;53.080;7.428;2023-11-19T00:54:32;11.10;99.90
13186;DHT22;6658;53.080;7.428;2023-11-19T00:56:58;11.20;99.90
13186;DHT22;6658;53.080;7.428;2023-11-19T00:59:23;11.20;99.90
13186;DHT22;6658;53.080;7.428;2023-11-19T01:01:49;11.30;99.90
13186;DHT22;6658;53.080;7.428;2023-11-19T01:04:16;11.40;99.90
13186;DHT22;6658;53.080;7.428;2023-11-19T01:06:42;11.40;99.90
13186;DHT22;6658;53.080;7.428;2023-11-19T01:09:08;11.40;99.90
13186;DHT22;6658;53.080;7.428;2023-11-19T01:11:35;11.50;99.90
13186;DHT22;6658;53.080;7.428;2023-11-19T01:14:00;11.50;99.90
13186;DHT22;6658;53.080;7.428;2023-11-19T01:16:27;11.60;99.90
13186;DHT22;6658;53.080;7.428;2023-11-19T01:18:52;11.60;99.90
13186;DHT22;6658;53.080;7.428;2023-11-19T01:21:18;11.70;99.90
13186;DHT22;6658;53.080;7.428;2023-11-19T01:23:44;11.70;99.90
13186;DHT22;6658;53.080;7.428;2023-11-19T01:26:12;11.80;99.90
13186;DHT22;6658;53.080;7.428;2023-11-19T01:28:41;11.80;99.90
13186;DHT22;6658;53.080;7.428;2023-11-19T01:31:11;11.90;99.90
13186;DHT22;6658;53.080;7.428;2023-11-19T01:33:38;11.90;99.90
13186;DHT22;6658;53.080;7.428;2023-11-19T01:36:04;12.00;99.90
13186;DHT22;6658;53.080;7.428;2023-11-19T01:38:30;12.00;99.90
13186;DHT22;6658;53.080;7.428;2023-11-19T01:40:58;12.00;99.90
13186;DHT22;6658;53.080;7.428;2023-11-19T01:43:34;12.00;99.90
13186;DHT22;6658;53.080;7.428;2023-11-19T01:46:00;12.10;99.90
13186;DHT22;6658;53.080;7.428;2023-11-19T01:48:27;12.10;99.90
13186;DHT22;6658;53.080;7.428;2023-11-19T01:50:53;12.10;99.90
13186;DHT22;6658;53.080;7.428;2023-11-19T01:53:20;12.10;99.90
13186;DHT22;6658;53.080;7.428;2023-11-19T01:55:46;12.20;99.90
13186;DHT22;6658;53.080;7.428;2023-11-19T01:58:13;12.20;99.90
13186;DHT22;6658;53.080;7.428;2023-11-19T02:00:39;12.20;99.90
13186;DHT22;6658;53.080;7.428;2023-11-19T02:03:06;12.20;99.90
13186;DHT22;6658;53.080;7.428;2023-11-19T02:05:34;12.30;99.90
13186;DHT22;6658;53.080;7.428;2023-11-19T02:08:01;12.30;99.90
13186;DHT22;6658;53.080;7.428;2023-11-19T02:10:27;12.30;99.90
13186;DHT22;6658;53.080;7.428;2023-11-19T02:12:52;12.30;99.90
13186;DHT22;6658;53.080;7.428;2023-11-19T02:15:18;12.40;99.90
13186;DHT22;6658;53.080;7.428;2023-11-19T02:17:50;12.40;99.90
13186;DHT22;6658;53.080;7.428;2023-11-19T02:20:17;12.40;99.90
13186;DHT22;6658;53.080;7.428;2023-11-19T02:22:46;12.40;99.90
13186;DHT22;6658;53.080;7.428;2023-11-19T02:25:20;12.30;99.90
13186;DHT22;6658;53.080;7.428;2023-11-19T02:27:53;12.40;99.90
13186;DHT22;6658;53.080;7.428;2023-11-19T02:30:23;12.30;99.90
13186;DHT22;6658;53.080;7.428;2023-11-19T02:33:01;12.30;99.90
13186;DHT22;6658;53.080;7.428;2023-11-19T02:35:29;12.30;99.90
13186;DHT22;6658;53.080;7.428;2023-11-19T02:37:57;12.30;99.90
13186;DHT22;6658;53.080;7.428;2023-11-19T02:40:24;12.40;99.90
13186;DHT22;6658;53.080;7.428;2023-11-19T02:42:51;12.40;99.90
13186;DHT22;6658;53.080;7.428;2023-11-19T02:45:17;12.40;99.90
13186;DHT22;6658;53.080;7.428;2023-11-19T02:47:43;12.40;99.90
13186;DHT22;6658;53.080;7.428;2023-11-19T02:50:10;12.40;99.90
13186;DHT22;6658;53.080;7.428;2023-11-19T02:52:42;12.50;99.90
13186;DHT22;6658;53.080;7.428;2023-11-19T02:55:10;12.50;99.90
13186;DHT22;6658;53.080;7.428;2023-11-19T02:57:38;12.50;99.90
13186;DHT22;6658;53.080;7.428;2023-11-19T03:00:15;12.50;99.90
13186;DHT22;6658;53.080;7.428;2023-11-19T03:02:41;12.60;99.90
13186;DHT22;6658;53.080;7.428;2023-11-19T03:05:16;12.60;99.90
13186;DHT22;6658;53.080;7.428;2023-11-19T03:07:43;12.60;99.90
13186;DHT22;6658;53.080;7.428;2023-11-19T03:10:10;12.60;99.90
13186;DHT22;6658;53.080;7.428;2023-11-19T03:12:39;12.60;99.90
13186;DHT22;6658;53.080;7.428;2023-11-19T03:15:05;12.60;99.90
13186;DHT22;6658;53.080;7.428;2023-11-19T03:17:32;12.60;99.90
13186;DHT22;6658;53.080;7.428;2023-11-19T03:19:57;12.60;99.90
13186;DHT22;6658;53.080;7.428;2023-11-19T03:22:23;12.60;99.90
13186;DHT22;6658;53.080;7.428;2023-11-19T03:24:51;12.60;99.90
13186;DHT22;6658;53.080;7.428;2023-11-19T03:27:17;12.60;99.90
13186;DHT22;6658;53.080;7.428;2023-11-19T03:29:42;12.60;99.90
13186;DHT22;6658;53.080;7.428;2023-11-19T03:32:08;12.70;99.90
13186;DHT22;6658;53.080;7.428;2023-11-19T03:34:34;12.70;99.90
13186;DHT22;6658;53.080;7.428;2023-11-19T03:37:00;12.70;99.90
13186;DHT22;6658;53.080;7.428;2023-11-19T03:39:26;12.70;99.90
13186;DHT22;6658;53.080;7.428;2023-11-19T03:41:52;12.70;99.90
13186;DHT22;6658;53.080;7.428;2023-11-19T03:44:18;12.70;99.90
13186;DHT22;6658;53.080;7.428;2023-11-19T03:46:44;12.70;99.90
13186;DHT22;6658;53.080;7.428;2023-11-19T03:49:11;12.70;99.90
13186;DHT22;6658;53.080;7.428;2023-11-19T03:51:37;12.70;99.90
13186;DHT22;6658;53.080;7.428;2023-11-19T03:54:03;12.70;99.90
13186;DHT22;6658;53.080;7.428;2023-11-19T03:56:29;12.70;99.90
13186;DHT22;6658;53.080;7.428;2023-11-19T03:58:56;12.70;99.90
13186;DHT22;6658;53.080;7.428;2023-11-19T04:01:22;12.70;99.90
13186;DHT22;6658;53.080;7.428;2023-11-19T04:03:47;12.70;99.90
13186;DHT22;6658;53.080;7.428;2023-11-19T04:06:13;12.70;99.90
13186;DHT22;6658;53.080;7.428;2023-11-19T04:08:39;12.70;99.90
13186;DHT22;6658;53.080;7.428;2023-11-19T04:11:05;12.70;99.90
13186;DHT22;6658;53.080;7.428;2023-11-19T04:13:31;12.70;99.90
13186;DHT22;6658;53.080;7.428;2023-11-19T04:15:57;12.70;99.90
13186;DHT22;6658;53.080;7.428;2023-11-19T04:18:22;12.70;99.90
13186;DHT22;6658;53.080;7.428;2023-11-19T04:20:48;12.80;99.90
13186;DHT22;6658;53.080;7.428;2023-11-19T04:23:15;12.80;99.90
13186;DHT22;6658;53.080;7.428;2023-11-19T04:25:41;12.80;99.90
13186;DHT22;6658;53.080;7.428;2023-11-19T04:28:07;12.80;99.90
13186;DHT22;6658;53.080;7.428;2023-11-19T04:30:33;12.80;99.90
13186;DHT22;6658;53.080;7.428;2023-11-19T04:32:59;12.90;99.90
13186;DHT22;6658;53.080;7.428;2023-11-19T04:35:25;12.90;99.90
13186;DHT22;6658;53.080;7.428;2023-11-19T04:37:51;12.90;99.90
13186;DHT22;6658;53.080;7.428;2023-11-19T04:40:17;13.00;99.90
13186;DHT22;6658;53.080;7.428;2023-11-19T04:42:48;13.00;99.90
13186;DHT22;6658;53.080;7.428;2023-11-19T04:45:13;13.00;99.90
13186;DHT22;6658;53.080;7.428;2023-11-19T04:47:39;13.00;99.90
13186;DHT22;6658;53.080;7.428;2023-11-19T04:50:05;13.00;99.90
13186;DHT22;6658;53.080;7.428;2023-11-19T04:52:31;13.10;99.90
13186;DHT22;6658;53.080;7.428;2023-11-19T04:54:57;13.00;99.90
13186;DHT22;6658;53.080;7.428;2023-11-19T04:57:22;13.00;99.90
13186;DHT22;6658;53.080;7.428;2023-11-19T04:59:48;13.10;99.90
13186;DHT22;6658;53.080;7.428;2023-11-19T05:02:13;13.00;99.90
13186;DHT22;6658;53.080;7.428;2023-11-19T05:04:44;13.00;99.90
13186;DHT22;6658;53.080;7.428;2023-11-19T05:07:11;13.00;99.90
13186;DHT22;6658;53.080;7.428;2023-11-19T05:09:36;13.00;99.90
13186;DHT22;6658;53.080;7.428;2023-11-19T05:12:02;13.00;99.90
13186;DHT22;6658;53.080;7.428;2023-11-19T05:14:28;13.00;99.90
13186;DHT22;6658;53.080;7.428;2023-11-19T05:16:53;13.00;99.90
13186;DHT22;6658;53.080;7.428;2023-11-19T05:19:19;13.00;99.90
13186;DHT22;6658;53.080;7.428;2023-11-19T05:21:45;13.00;99.90
13186;DHT22;6658;53.080;7.428;2023-11-19T05:24:11;13.00;99.90
13186;DHT22;6658;53.080;7.428;2023-11-19T05:26:39;12.90;99.90
13186;DHT22;6658;53.080;7.428;2023-11-19T05:29:06;13.00;99.90
13186;DHT22;6658;53.080;7.428;2023-11-19T05:31:31;12.90;99.90
13186;DHT22;6658;53.080;7.428;2023-11-19T05:33:57;12.90;99.90
13186;DHT22;6658;53.080;7.428;2023-11-19T05:36:23;12.90;99.90
13186;DHT22;6658;53.080;7.428;2023-11-19T05:38:48;12.90;99.90
13186;DHT22;6658;53.080;7.428;2023-11-19T05:41:14;12.80;99.90
13186;DHT22;6658;53.080;7.428;2023-11-19T05:43:40;12.90;99.90
13186;DHT22;6658;53.080;7.428;2023-11-19T05:46:06;12.90;99.90
13186;DHT22;6658;53.080;7.428;2023-11-19T05:48:32;12.90;99.90
13186;DHT22;6658;53.080;7.428;2023-11-19T05:50:58;12.90;99.90
13186;DHT22;6658;53.080;7.428;2023-11-19T05:53:24;12.90;99.90
13186;DHT22;6658;53.080;7.428;2023-11-19T05:55:50;12.80;99.90
13186;DHT22;6658;53.080;7.428;2023-11-19T05:58:27;12.90;99.90
13186;DHT22;6658;53.080;7.428;2023-11-19T06:00:58;12.90;99.90
13186;DHT22;6658;53.080;7.428;2023-11-19T06:03:26;12.90;99.90
13186;DHT22;6658;53.080;7.428;2023-11-19T06:05:52;12.90;99.90
13186;DHT22;6658;53.080;7.428;2023-11-19T06:08:19;12.90;99.90
13186;DHT22;6658;53.080;7.428;2023-11-19T06:10:46;12.90;99.90
13186;DHT22;6658;53.080;7.428;2023-11-19T06:13:15;12.80;99.90
13186;DHT22;6658;53.080;7.428;2023-11-19T06:15:44;12.80;99.90
13186;DHT22;6658;53.080;7.428;2023-11-19T06:18:10;12.70;99.90
13186;DHT22;6658;53.080;7.428;2023-11-19T06:20:37;12.70;99.90
13186;DHT22;6658;53.080;7.428;2023-11-19T06:23:03;12.70;99.90
13186;DHT22;6658;53.080;7.428;2023-11-19T06:25:29;12.60;99.90
13186;DHT22;6658;53.080;7.428;2023-11-19T06:27:55;12.60;99.90
13186;DHT22;6658;53.080;7.428;2023-11-19T06:30:20;12.60;99.90
13186;DHT22;6658;53.080;7.428;2023-11-19T06:32:46;12.60;99.90
13186;DHT22;6658;53.080;7.428;2023-11-19T06:35:12;12.60;99.90
13186;DHT22;6658;53.080;7.428;2023-11-19T06:37:39;12.60;99.90
13186;DHT22;6658;53.080;7.428;2023-11-19T06:40:06;12.60;99.90
13186;DHT22;6658;53.080;7.428;2023-11-19T06:42:32;12.60;99.90
13186;DHT22;6658;53.080;7.428;2023-11-19T06:44:58;12.60;99.90
13186;DHT22;6658;53.080;7.428;2023-11-19T06:47:27;12.60;99.90
13186;DHT22;6658;53.080;7.428;2023-11-19T06:49:54;12.60;99.90
13186;DHT22;6658;53.080;7.428;2023-11-19T06:52:20;12.60;99.90
13186;DHT22;6658;53.080;7.428;2023-11-19T06:54:46;12.60;99.90
13186;DHT22;6658;53.080;7.428;2023-11-19T06:57:12;12.60;99.90
13186;DHT22;6658;53.080;7.428;2023-11-19T06:59:38;12.60;99.90
13186;DHT22;6658;53.080;7.428;2023-11-19T07:02:04;12.50;99.90
13186;DHT22;6658;53.080;7.428;2023-11-19T07:04:31;12.50;99.90
13186;DHT22;6658;53.080;7.428;2023-11-19T07:06:57;12.50;99.90
13186;DHT22;6658;53.080;7.428;2023-11-19T07:09:22;12.50;99.90
13186;DHT22;6658;53.080;7.428;2023-11-19T07:11:49;12.40;99.90
13186;DHT22;6658;53.080;7.428;2023-11-19T07:14:16;12.40;99.90
13186;DHT22;6658;53.080;7.428;2023-11-19T07:16:43;12.40;99.90
13186;DHT22;6658;53.080;7.428;2023-11-19T07:19:08;12.40;99.90
13186;DHT22;6658;53.080;7.428;2023-11-19T07:21:34;12.30;99.90
13186;DHT22;6658;53.080;7.428;2023-11-19T07:24:02;12.30;99.90
13186;DHT22;6658;53.080;7.428;2023-11-19T07:26:27;12.30;99.90
13186;DHT22;6658;53.080;7.428;2023-11-19T07:28:53;12.30;99.90
13186;DHT22;6658;53.080;7.428;2023-11-19T07:31:21;12.30;99.90
13186;DHT22;6658;53.080;7.428;2023-11-19T07:33:47;12.30;99.90
13186;DHT22;6658;53.080;7.428;2023-11-19T07:36:13;12.30;99.90
13186;DHT22;6658;53.080;7.428;2023-11-19T07:38:39;12.30;99.90
13186;DHT22;6658;53.080;7.428;2023-11-19T07:41:06;12.30;99.90
13186;DHT22;6658;53.080;7.428;2023-11-19T07:43:32;12.30;99.90
13186;DHT22;6658;53.080;7.428;2023-11-19T07:45:59;12.30;99.90
13186;DHT22;6658;53.080;7.428;2023-11-19T07:48:25;12.20;99.90
13186;DHT22;6658;53.080;7.428;2023-11-19T07:50:52;12.20;99.90
13186;DHT22;6658;53.080;7.428;2023-11-19T07:53:19;12.20;99.90
13186;DHT22;6658;53.080;7.428;2023-11-19T07:55:45;12.20;99.90
13186;DHT22;6658;53.080;7.428;2023-11-19T07:58:11;12.20;99.90
13186;DHT22;6658;53.080;7.428;2023-11-19T08:00:37;12.20;99.90
13186;DHT22;6658;53.080;7.428;2023-11-19T08:03:03;12.20;99.90
13186;DHT22;6658;53.080;7.428;2023-11-19T08:05:31;12.30;99.90
13186;DHT22;6658;53.080;7.428;2023-11-19T08:07:57;12.30;99.90
13186;DHT22;6658;53.080;7.428;2023-11-19T08:10:24;12.30;99.90
13186;DHT22;6658;53.080;7.428;2023-11-19T08:12:49;12.30;99.90
13186;DHT22;6658;53.080;7.428;2023-11-19T08:15:15;12.30;99.90
13186;DHT22;6658;53.080;7.428;2023-11-19T08:17:41;12.30;99.90
13186;DHT22;6658;53.080;7.428;2023-11-19T08:20:09;12.30;99.90
13186;DHT22;6658;53.080;7.428;2023-11-19T08:22:39;12.30;99.90
13186;DHT22;6658;53.080;7.428;2023-11-19T08:25:05;12.30;99.90
13186;DHT22;6658;53.080;7.428;2023-11-19T08:27:31;12.30;99.90
13186;DHT22;6658;53.080;7.428;2023-11-19T08:29:57;12.20;99.90
13186;DHT22;6658;53.080;7.428;2023-11-19T08:32:26;12.20;99.90
13186;DHT22;6658;53.080;7.428;2023-11-19T08:34:52;12.20;99.90
13186;DHT22;6658;53.080;7.428;2023-11-19T08:37:18;12.20;99.90
13186;DHT22;6658;53.080;7.428;2023-11-19T08:39:50;12.20;99.90
13186;DHT22;6658;53.080;7.428;2023-11-19T08:42:19;12.20;99.90
13186;DHT22;6658;53.080;7.428;2023-11-19T08:44:49;12.20;99.90
13186;DHT22;6658;53.080;7.428;2023-11-19T08:47:17;12.30;99.90
13186;DHT22;6658;53.080;7.428;2023-11-19T08:49:46;12.30;99.90
13186;DHT22;6658;53.080;7.428;2023-11-19T08:52:12;12.30;99.90
13186;DHT22;6658;53.080;7.428;2023-11-19T08:54:37;12.20;99.90
13186;DHT22;6658;53.080;7.428;2023-11-19T08:57:04;12.10;99.90
13186;DHT22;6658;53.080;7.428;2023-11-19T08:59:30;12.10;99.90
13186;DHT22;6658;53.080;7.428;2023-11-19T09:01:55;12.10;99.90
13186;DHT22;6658;53.080;7.428;2023-11-19T09:04:21;12.10;99.90
13186;DHT22;6658;53.080;7.428;2023-11-19T09:06:50;12.20;99.90
13186;DHT22;6658;53.080;7.428;2023-11-19T09:09:15;12.30;99.90
13186;DHT22;6658;53.080;7.428;2023-11-19T09:11:41;12.40;99.90
13186;DHT22;6658;53.080;7.428;2023-11-19T09:14:07;12.50;99.90
13186;DHT22;6658;53.080;7.428;2023-11-19T09:16:33;12.50;99.90
13186;DHT22;6658;53.080;7.428;2023-11-19T09:18:59;12.50;99.90
13186;DHT22;6658;53.080;7.428;2023-11-19T09:21:28;12.50;99.90
13186;DHT22;6658;53.080;7.428;2023-11-19T09:23:57;12.40;99.90
13186;DHT22;6658;53.080;7.428;2023-11-19T09:26:23;12.40;99.90
13186;DHT22;6658;53.080;7.428;2023-11-19T09:28:49;12.40;99.90
13186;DHT22;6658;53.080;7.428;2023-11-19T09:31:18;12.40;99.90
13186;DHT22;6658;53.080;7.428;2023-11-19T09:33:44;12.30;99.90
13186;DHT22;6658;53.080;7.428;2023-11-19T09:36:12;12.30;99.90
13186;DHT22;6658;53.080;7.428;2023-11-19T09:38:42;12.30;99.90
13186;DHT22;6658;53.080;7.428;2023-11-19T09:41:09;12.30;99.90
13186;DHT22;6658;53.080;7.428;2023-11-19T09:43:36;12.30;99.90
13186;DHT22;6658;53.080;7.428;2023-11-19T09:46:06;12.30;99.90
13186;DHT22;6658;53.080;7.428;2023-11-19T09:48:35;12.30;99.90
13186;DHT22;6658;53.080;7.428;2023-11-19T09:51:02;12.40;99.90
13186;DHT22;6658;53.080;7.428;2023-11-19T09:53:29;12.40;99.90
13186;DHT22;6658;53.080;7.428;2023-11-19T09:55:56;12.40;99.90
13186;DHT22;6658;53.080;7.428;2023-11-19T09:58:22;12.40;99.90
13186;DHT22;6658;53.080;7.428;2023-11-19T10:00:49;12.30;99.90
13186;DHT22;6658;53.080;7.428;2023-11-19T10:03:15;12.40;99.90
13186;DHT22;6658;53.080;7.428;2023-11-19T10:05:41;12.40;99.90
13186;DHT22;6658;53.080;7.428;2023-11-19T10:08:07;12.60;99.90
13186;DHT22;6658;53.080;7.428;2023-11-19T10:10:34;12.70;99.90
13186;DHT22;6658;53.080;7.428;2023-11-19T10:13:00;12.80;99.90
13186;DHT22;6658;53.080;7.428;2023-11-19T10:15:26;12.80;99.90
13186;DHT22;6658;53.080;7.428;2023-11-19T10:17:56;12.80;99.90
13186;DHT22;6658;53.080;7.428;2023-11-19T10:20:22;12.80;99.90
13186;DHT22;6658;53.080;7.428;2023-11-19T10:22:50;12.70;99.90
13186;DHT22;6658;53.080;7.428;2023-11-19T10:25:24;12.80;99.90
13186;DHT22;6658;53.080;7.428;2023-11-19T10:27:51;12.80;99.90
13186;DHT22;6658;53.080;7.428;2023-11-19T10:30:20;13.00;99.90
13186;DHT22;6658;53.080;7.428;2023-11-19T10:32:45;13.10;99.90
13186;DHT22;6658;53.080;7.428;2023-11-19T10:35:11;13.10;99.90
13186;DHT22;6658;53.080;7.428;2023-11-19T10:37:39;13.10;99.90
13186;DHT22;6658;53.080;7.428;2023-11-19T10:40:05;13.10;99.90
13186;DHT22;6658;53.080;7.428;2023-11-19T10:42:31;13.00;99.90
13186;DHT22;6658;53.080;7.428;2023-11-19T10:44:56;13.00;99.90
13186;DHT22;6658;53.080;7.428;2023-11-19T10:47:23;13.00;99.90
13186;DHT22;6658;53.080;7.428;2023-11-19T10:49:49;12.90;99.90
13186;DHT22;6658;53.080;7.428;2023-11-19T10:52:18;12.90;99.90
13186;DHT22;6658;53.080;7.428;2023-11-19T10:54:50;12.80;99.90
13186;DHT22;6658;53.080;7.428;2023-11-19T10:57:22;12.80;99.90
13186;DHT22;6658;53.080;7.428;2023-11-19T10:59:52;12.80;99.90
13186;DHT22;6658;53.080;7.428;2023-11-19T11:02:24;12.70;99.90
13186;DHT22;6658;53.080;7.428;2023-11-19T11:04:51;12.70;99.90
13186;DHT22;6658;53.080;7.428;2023-11-19T11:07:20;12.70;99.90
13186;DHT22;6658;53.080;7.428;2023-11-19T11:09:47;12.70;99.90
13186;DHT22;6658;53.080;7.428;2023-11-19T11:12:15;12.70;99.90
13186;DHT22;6658;53.080;7.428;2023-11-19T11:14:44;12.80;99.90
13186;DHT22;6658;53.080;7.428;2023-11-19T11:17:12;12.80;99.90
13186;DHT22;6658;53.080;7.428;2023-11-19T11:19:42;12.70;99.90
13186;DHT22;6658;53.080;7.428;2023-11-19T11:22:09;12.70;99.90
13186;DHT22;6658;53.080;7.428;2023-11-19T11:27:53;12.50;99.90
13186;DHT22;6658;53.080;7.428;2023-11-19T11:30:35;12.30;99.90
13186;DHT22;6658;53.080;7.428;2023-11-19T11:36:06;12.10;99.90
13186;DHT22;6658;53.080;7.428;2023-11-19T11:38:36;12.00;99.90
13186;DHT22;6658;53.080;7.428;2023-11-19T11:41:22;11.90;99.90
13186;DHT22;6658;53.080;7.428;2023-11-19T11:43:56;11.70;99.90
13186;DHT22;6658;53.080;7.428;2023-11-19T11:49:06;11.60;99.90
13186;DHT22;6658;53.080;7.428;2023-11-19T11:54:11;11.40;99.90
13186;DHT22;6658;53.080;7.428;2023-11-19T11:56:37;11.40;99.90
13186;DHT22;6658;53.080;7.428;2023-11-19T11:59:18;11.30;99.90
13186;DHT22;6658;53.080;7.428;2023-11-19T12:02:11;11.30;99.90
13186;DHT22;6658;53.080;7.428;2023-11-19T12:04:37;11.40;99.90
13186;DHT22;6658;53.080;7.428;2023-11-19T12:07:13;11.40;99.90
13186;DHT22;6658;53.080;7.428;2023-11-19T12:09:43;11.40;99.90
13186;DHT22;6658;53.080;7.428;2023-11-19T12:12:19;11.50;99.90
13186;DHT22;6658;53.080;7.428;2023-11-19T12:17:48;11.60;99.90
13186;DHT22;6658;53.080;7.428;2023-11-19T12:20:18;11.80;99.90
13186;DHT22;6658;53.080;7.428;2023-11-19T12:22:46;11.90;99.90
13186;DHT22;6658;53.080;7.428;2023-11-19T12:25:13;12.00;99.90
13186;DHT22;6658;53.080;7.428;2023-11-19T12:27:41;12.10;99.90
13186;DHT22;6658;53.080;7.428;2023-11-19T12:30:08;12.10;99.90
13186;DHT22;6658;53.080;7.428;2023-11-19T12:32:45;12.20;99.90
13186;DHT22;6658;53.080;7.428;2023-11-19T12:35:11;12.20;99.90
13186;DHT22;6658;53.080;7.428;2023-11-19T12:37:48;12.30;99.90
13186;DHT22;6658;53.080;7.428;2023-11-19T12:40:24;12.30;99.90
13186;DHT22;6658;53.080;7.428;2023-11-19T12:42:54;12.30;99.90
13186;DHT22;6658;53.080;7.428;2023-11-19T12:45:20;12.20;99.90
13186;DHT22;6658;53.080;7.428;2023-11-19T12:47:48;12.20;99.90
13186;DHT22;6658;53.080;7.428;2023-11-19T12:50:16;12.20;99.90
13186;DHT22;6658;53.080;7.428;2023-11-19T12:52:58;12.30;99.90
13186;DHT22;6658;53.080;7.428;2023-11-19T12:55:28;12.40;99.90
13186;DHT22;6658;53.080;7.428;2023-11-19T12:57:55;12.50;99.90
13186;DHT22;6658;53.080;7.428;2023-11-19T13:00:23;12.60;99.90
13186;DHT22;6658;53.080;7.428;2023-11-19T13:02:50;12.70;99.90
13186;DHT22;6658;53.080;7.428;2023-11-19T13:05:31;12.80;99.90
13186;DHT22;6658;53.080;7.428;2023-11-19T13:08:09;12.90;99.90
13186;DHT22;6658;53.080;7.428;2023-11-19T13:10:51;12.90;99.90
13186;DHT22;6658;53.080;7.428;2023-11-19T13:13:17;12.90;99.90
13186;DHT22;6658;53.080;7.428;2023-11-19T13:15:43;12.80;99.90
13186;DHT22;6658;53.080;7.428;2023-11-19T13:18:12;12.70;99.90
13186;DHT22;6658;53.080;7.428;2023-11-19T13:20:39;12.70;99.90
13186;DHT22;6658;53.080;7.428;2023-11-19T13:23:06;12.60;99.90
13186;DHT22;6658;53.080;7.428;2023-11-19T13:25:35;12.60;99.90
13186;DHT22;6658;53.080;7.428;2023-11-19T13:28:01;12.50;99.90
13186;DHT22;6658;53.080;7.428;2023-11-19T13:30:27;12.50;99.90
13186;DHT22;6658;53.080;7.428;2023-11-19T13:32:54;12.40;99.90
13186;DHT22;6658;53.080;7.428;2023-11-19T13:35:21;12.40;99.90
13186;DHT22;6658;53.080;7.428;2023-11-19T13:37:47;12.40;99.90
13186;DHT22;6658;53.080;7.428;2023-11-19T13:40:13;12.40;99.90
13186;DHT22;6658;53.080;7.428;2023-11-19T13:42:41;12.40;99.90
13186;DHT22;6658;53.080;7.428;2023-11-19T13:45:11;12.40;99.90
13186;DHT22;6658;53.080;7.428;2023-11-19T13:47:42;12.40;99.90
13186;DHT22;6658;53.080;7.428;2023-11-19T13:50:10;12.30;99.90
13186;DHT22;6658;53.080;7.428;2023-11-19T13:52:37;12.30;99.90
13186;DHT22;6658;53.080;7.428;2023-11-19T13:55:05;12.30;99.90
13186;DHT22;6658;53.080;7.428;2023-11-19T13:57:32;12.30;99.90
13186;DHT22;6658;53.080;7.428;2023-11-19T13:59:57;12.40;99.90
13186;DHT22;6658;53.080;7.428;2023-11-19T14:02:23;12.40;99.90
13186;DHT22;6658;53.080;7.428;2023-11-19T14:04:49;12.40;99.90
13186;DHT22;6658;53.080;7.428;2023-11-19T14:07:15;12.40;99.90
13186;DHT22;6658;53.080;7.428;2023-11-19T14:09:42;12.40;99.90
13186;DHT22;6658;53.080;7.428;2023-11-19T14:12:08;12.30;99.90
13186;DHT22;6658;53.080;7.428;2023-11-19T14:14:35;12.30;99.90
13186;DHT22;6658;53.080;7.428;2023-11-19T14:17:02;12.30;99.90
13186;DHT22;6658;53.080;7.428;2023-11-19T14:19:29;12.30;99.90
13186;DHT22;6658;53.080;7.428;2023-11-19T14:21:54;12.30;99.90
13186;DHT22;6658;53.080;7.428;2023-11-19T14:24:20;12.30;99.90
13186;DHT22;6658;53.080;7.428;2023-11-19T14:26:46;12.30;99.90
13186;DHT22;6658;53.080;7.428;2023-11-19T14:29:16;12.30;99.90
13186;DHT22;6658;53.080;7.428;2023-11-19T14:31:42;12.30;99.90
13186;DHT22;6658;53.080;7.428;2023-11-19T14:34:07;12.30;99.90
13186;DHT22;6658;53.080;7.428;2023-11-19T14:36:33;12.30;99.90
13186;DHT22;6658;53.080;7.428;2023-11-19T14:38:59;12.20;99.90
13186;DHT22;6658;53.080;7.428;2023-11-19T14:41:24;12.20;99.90
13186;DHT22;6658;53.080;7.428;2023-11-19T14:43:50;12.20;99.90
13186;DHT22;6658;53.080;7.428;2023-11-19T14:46:16;12.10;99.90
13186;DHT22;6658;53.080;7.428;2023-11-19T14:48:41;12.10;99.90
13186;DHT22;6658;53.080;7.428;2023-11-19T14:51:07;12.10;99.90
13186;DHT22;6658;53.080;7.428;2023-11-19T14:53:34;12.00;99.90
13186;DHT22;6658;53.080;7.428;2023-11-19T14:56:00;11.90;99.90
13186;DHT22;6658;53.080;7.428;2023-11-19T14:58:26;11.80;99.90
13186;DHT22;6658;53.080;7.428;2023-11-19T15:00:52;11.80;99.90
13186;DHT22;6658;53.080;7.428;2023-11-19T15:03:18;11.80;99.90
13186;DHT22;6658;53.080;7.428;2023-11-19T15:05:48;11.80;99.90
13186;DHT22;6658;53.080;7.428;2023-11-19T15:08:14;11.80;99.90
13186;DHT22;6658;53.080;7.428;2023-11-19T15:10:42;11.80;99.90
13186;DHT22;6658;53.080;7.428;2023-11-19T15:13:08;11.80;99.90
13186;DHT22;6658;53.080;7.428;2023-11-19T15:15:34;11.70;99.90
13186;DHT22;6658;53.080;7.428;2023-11-19T15:18:00;11.70;99.90
13186;DHT22;6658;53.080;7.428;2023-11-19T15:20:26;11.70;99.90
13186;DHT22;6658;53.080;7.428;2023-11-19T15:22:56;11.70;99.90
13186;DHT22;6658;53.080;7.428;2023-11-19T15:25:21;11.60;99.90
13186;DHT22;6658;53.080;7.428;2023-11-19T15:27:48;11.60;99.90
13186;DHT22;6658;53.080;7.428;2023-11-19T15:30:14;11.70;99.90
13186;DHT22;6658;53.080;7.428;2023-11-19T15:32:41;11.70;99.90
13186;DHT22;6658;53.080;7.428;2023-11-19T15:35:09;11.60;99.90
13186;DHT22;6658;53.080;7.428;2023-11-19T15:37:35;11.70;99.90
13186;DHT22;6658;53.080;7.428;2023-11-19T15:40:01;11.60;99.90
13186;DHT22;6658;53.080;7.428;2023-11-19T15:42:29;11.60;99.90
13186;DHT22;6658;53.080;7.428;2023-11-19T15:44:55;11.50;99.90
13186;DHT22;6658;53.080;7.428;2023-11-19T15:47:21;11.60;99.90
13186;DHT22;6658;53.080;7.428;2023-11-19T15:49:47;11.60;99.90
13186;DHT22;6658;53.080;7.428;2023-11-19T15:52:15;11.50;99.90
13186;DHT22;6658;53.080;7.428;2023-11-19T15:54:41;11.50;99.90
13186;DHT22;6658;53.080;7.428;2023-11-19T15:57:07;11.50;99.90
13186;DHT22;6658;53.080;7.428;2023-11-19T15:59:33;11.40;99.90